Honolulu, HI (96816)

6:13 PM HST on September 02, 2015 (GMT -1000)
Kaimuki - Lower SIerra Drive | | Change Station
CLOSE
Current Station
Personal Weather Station
Location: Honolulu, HI
Elevation: 217 ft
Nearby Weather Stations

Elev 217 ft 21.29 °N, 157.80 °W | Updated 4 seconds ago

Mostly Cloudy
Mostly Cloudy
85.1 °F
Feels Like 93 °F
N
0.0
Wind Variable Wind from WNW
Gusts 3.0 mph

Today
High -- | Low -- °F
--% Chance of Precip.
Yesterday
High -- | Low -- °F
Precip. -- in
6:14 AM 6:46 PM
Waning Gibbous, 74% visible
Pressure 29.82 in
Visibility 10.0 miles
Clouds Few 2400 ft
Scattered Clouds 3800 ft
Mostly Cloudy 28000 ft
Heat Index 93 °F
Dew Point 74 °F
Humidity 70%
Rainfall 0.00 in
Snow Depth Not available.
UV 0 out of 12
Pollen Not available.
Air Quality Not available.
Flu Activity Not available.
METAR PHNL 030353Z 18005KT 10SM FEW024 SCT038 BKN280 28/24 A2982 RMK AO2 SLP098 T02830239
Pressure 29.82 in
Visibility 10.0 miles
Clouds Few 2400 ft
Scattered Clouds 3800 ft
Mostly Cloudy 28000 ft
Heat Index 93 °F
Dew Point 74 °F
Humidity 70%
Rainfall 0.00 in
Snow Depth Not available.
UV 0 out of 12
Pollen Not available.
Air Quality Not available.
Flu Activity Not available.
METAR PHNL 030353Z 18005KT 10SM FEW024 SCT038 BKN280 28/24 A2982 RMK AO2 SLP098 T02830239

10-Day Weather Forecast

×

Almanac

Astronomy

Sep. 02, 2015 Rise Set
Actual Time
Civil Twilight
Nautical Twilight
Astronomical Twilight
Moon
Length of Visible Light
Length of Day
Tomorrow will be .
, % of the Moon is Illuminated

Today's Extremes

State Highs State Lows

Community

WunderPhotos

Upload Photos

1,851,910 photos uploaded!

WunderBlogs® & News

Nearby

Air Quality

  Air Quality AQ Index Pollutant
Not available.

Snow Depth

Station Depth Elevation

Earthquake Activity

City Distance Mag. Time & Date
Minimum magnitude displayed is 2.5.

Coastal Water Temperatures

Place Temperature

Stations

Nearby Weather Stations

Station Location Temp. Windchill Dew Point Humidity Wind Precip. Elev Updated Type